createdAt,value
2022-10-12T00:02:00.867Z,1.55
2022-10-12T00:04:29.927Z,1.88
2022-10-12T00:06:57.355Z,1.13
2022-10-12T00:09:25.503Z,2.00
2022-10-12T00:11:53.107Z,2.22
2022-10-12T00:14:21.252Z,1.20
2022-10-12T00:16:48.868Z,1.40
2022-10-12T00:19:16.341Z,1.42
2022-10-12T00:21:43.807Z,1.65
2022-10-12T00:24:11.485Z,1.52
2022-10-12T00:26:39.383Z,1.60
2022-10-12T00:29:06.910Z,1.27
2022-10-12T00:31:34.386Z,2.25
2022-10-12T00:34:02.764Z,1.58
2022-10-12T00:36:33.685Z,2.05
2022-10-12T00:39:01.426Z,1.33
2022-10-12T00:41:30.506Z,1.23
2022-10-12T00:43:58.865Z,1.77
2022-10-12T00:46:47.469Z,1.30
2022-10-12T00:49:21.492Z,1.23
2022-10-12T00:51:50.234Z,0.95
2022-10-12T00:54:20.794Z,1.48
2022-10-12T00:56:50.138Z,1.60
2022-10-12T00:59:19.561Z,1.40
2022-10-12T01:01:47.127Z,1.88
2022-10-12T01:04:14.800Z,1.63
2022-10-12T01:06:42.979Z,1.98
2022-10-12T01:09:10.431Z,2.60
2022-10-12T01:11:38.122Z,1.15
2022-10-12T01:14:05.627Z,1.98
2022-10-12T01:16:42.652Z,1.20
2022-10-12T01:19:27.676Z,1.98
2022-10-12T01:22:03.030Z,1.35
2022-10-12T01:24:45.346Z,1.45
2022-10-12T01:27:12.792Z,1.42
2022-10-12T01:29:58.720Z,1.25
2022-10-12T01:32:41.295Z,1.33
2022-10-12T01:35:18.949Z,1.65
2022-10-12T01:37:53.488Z,1.50
2022-10-12T01:40:23.857Z,1.65
2022-10-12T01:42:51.490Z,1.27
2022-10-12T01:45:19.642Z,1.35
2022-10-12T01:47:54.176Z,1.45
2022-10-12T01:50:23.082Z,1.38
2022-10-12T01:52:57.698Z,1.98
2022-10-12T01:55:25.165Z,1.38
2022-10-12T01:58:04.685Z,1.92
2022-10-12T02:00:34.227Z,1.55
2022-10-12T02:03:20.560Z,1.33
2022-10-12T02:05:57.831Z,1.63
2022-10-12T02:08:26.419Z,1.20
2022-10-12T02:10:57.077Z,1.48
2022-10-12T02:13:27.227Z,1.10
2022-10-12T02:15:55.036Z,1.50
2022-10-12T02:18:23.492Z,1.95
2022-10-12T02:20:54.229Z,1.10
2022-10-12T02:23:23.799Z,2.17
2022-10-12T02:25:52.292Z,1.60
2022-10-12T02:28:22.236Z,1.50
2022-10-12T02:30:58.367Z,1.67
2022-10-12T02:33:28.201Z,1.58
2022-10-12T02:36:06.983Z,1.30
2022-10-12T02:38:37.030Z,1.38
2022-10-12T02:41:07.014Z,1.38
2022-10-12T02:43:40.646Z,1.67
2022-10-12T02:46:09.806Z,1.38
2022-10-12T02:48:39.724Z,1.35
2022-10-12T02:51:08.015Z,1.65
2022-10-12T02:53:35.661Z,1.88
2022-10-12T02:56:07.463Z,1.38
2022-10-12T02:58:35.041Z,1.60
2022-10-12T03:01:03.725Z,1.48
2022-10-12T03:03:31.970Z,1.75
2022-10-12T03:05:59.401Z,1.27
2022-10-12T03:08:27.609Z,1.25
2022-10-12T03:10:55.720Z,1.27
2022-10-12T03:13:23.464Z,1.58
2022-10-12T03:15:51.424Z,1.27
2022-10-12T03:18:21.855Z,2.17
2022-10-12T03:20:52.737Z,1.73
2022-10-12T03:23:21.205Z,1.65
2022-10-12T03:25:48.640Z,1.20
2022-10-12T03:28:16.733Z,1.42
2022-10-12T03:30:44.752Z,1.92
2022-10-12T03:33:12.252Z,0.80
2022-10-12T03:35:39.745Z,1.70
2022-10-12T03:38:07.272Z,1.38
2022-10-12T03:40:36.629Z,1.30
2022-10-12T03:43:04.770Z,1.88
2022-10-12T03:45:32.413Z,1.02
2022-10-12T03:48:04.625Z,1.73
2022-10-12T03:50:36.500Z,1.20
2022-10-12T03:53:06.097Z,1.83
2022-10-12T03:55:34.108Z,1.20
2022-10-12T03:58:01.603Z,1.85
2022-10-12T04:00:29.174Z,1.48
2022-10-12T04:02:56.716Z,1.02
2022-10-12T04:05:24.187Z,1.17
2022-10-12T04:07:52.155Z,0.82
2022-10-12T04:10:19.865Z,1.65
2022-10-12T04:12:47.358Z,1.02
2022-10-12T04:15:15.289Z,1.55
2022-10-12T04:17:42.850Z,1.63
2022-10-12T04:20:10.902Z,1.38
2022-10-12T04:22:38.783Z,1.65
2022-10-12T04:25:07.781Z,0.98
2022-10-12T04:27:35.378Z,0.65
2022-10-12T04:30:03.175Z,1.52
2022-10-12T04:32:31.380Z,1.02
2022-10-12T04:34:59.607Z,1.35
2022-10-12T04:37:28.884Z,1.23
2022-10-12T04:39:56.774Z,1.83
2022-10-12T04:42:24.349Z,1.65
2022-10-12T04:44:51.808Z,1.15
2022-10-12T04:47:19.379Z,1.05
2022-10-12T04:49:46.997Z,1.70
2022-10-12T04:52:14.640Z,2.00
2022-10-12T04:54:42.268Z,0.90
2022-10-12T04:57:09.891Z,1.25
2022-10-12T04:59:37.569Z,1.10
2022-10-12T05:02:05.746Z,1.15
2022-10-12T05:09:34.191Z,1.65
2022-10-12T05:12:01.670Z,1.50
2022-10-12T05:14:33.521Z,0.93
2022-10-12T05:17:03.975Z,1.20
2022-10-12T05:19:31.434Z,1.27
2022-10-12T05:21:59.164Z,1.85
2022-10-12T05:24:26.679Z,1.42
2022-10-12T05:26:54.335Z,1.92
2022-10-12T05:29:21.744Z,1.42
2022-10-12T05:31:49.222Z,0.98
2022-10-12T05:34:17.280Z,1.38
2022-10-12T05:36:46.616Z,1.27
2022-10-12T05:39:14.089Z,1.58
2022-10-12T05:41:42.248Z,1.58
2022-10-12T05:44:09.661Z,1.40
2022-10-12T05:46:37.833Z,1.42
2022-10-12T05:49:08.210Z,1.63
2022-10-12T05:51:38.608Z,1.55
2022-10-12T05:54:06.089Z,1.63
2022-10-12T05:56:33.529Z,1.45
2022-10-12T05:59:00.985Z,1.30
2022-10-12T06:01:29.208Z,1.30
2022-10-12T06:03:57.034Z,1.50
2022-10-12T06:06:24.739Z,1.58
2022-10-12T06:08:52.325Z,1.83
2022-10-12T06:11:19.786Z,1.17
2022-10-12T06:13:47.229Z,1.38
2022-10-12T06:16:14.740Z,1.25
2022-10-12T06:18:42.189Z,1.27
2022-10-12T06:23:57.590Z,1.58
2022-10-12T06:26:26.265Z,1.40
2022-10-12T06:28:55.345Z,1.35
2022-10-12T06:31:24.037Z,1.88
2022-10-12T06:33:51.619Z,2.40
2022-10-12T06:36:21.118Z,1.73
2022-10-12T06:38:48.570Z,1.70
2022-10-12T06:41:15.984Z,1.63
2022-10-12T06:43:43.503Z,1.48
2022-10-12T06:46:11.027Z,1.55
2022-10-12T06:48:38.592Z,1.63
2022-10-12T06:51:06.152Z,1.90
2022-10-12T06:53:36.389Z,2.55
2022-10-12T06:56:07.841Z,1.30
2022-10-12T06:58:35.933Z,1.80
2022-10-12T07:01:04.590Z,2.13
2022-10-12T07:03:34.218Z,2.05
2022-10-12T07:06:12.697Z,2.03
2022-10-12T07:08:42.719Z,1.33
2022-10-12T07:11:12.180Z,1.88
2022-10-12T07:13:39.842Z,1.70
2022-10-12T07:16:07.774Z,1.60
2022-10-12T07:18:37.270Z,2.50
2022-10-12T07:21:04.769Z,1.90
2022-10-12T07:23:33.561Z,2.35
2022-10-12T07:26:02.004Z,1.55
2022-10-12T07:28:30.098Z,1.90
2022-10-12T07:31:04.574Z,1.48
2022-10-12T07:33:33.683Z,1.85
2022-10-12T07:38:50.625Z,2.78
2022-10-12T07:41:18.464Z,1.83
2022-10-12T07:43:45.894Z,1.70
2022-10-12T07:46:13.440Z,1.88
2022-10-12T07:48:47.285Z,1.48
2022-10-12T07:51:17.423Z,1.77
2022-10-12T07:53:45.777Z,1.48
2022-10-12T07:56:16.181Z,2.05
2022-10-12T07:58:45.310Z,2.10
2022-10-12T08:01:13.239Z,1.65
2022-10-12T08:03:40.802Z,1.42
2022-10-12T08:06:27.370Z,1.77
2022-10-12T08:08:55.928Z,1.80
2022-10-12T08:11:24.390Z,1.73
2022-10-12T08:13:51.834Z,1.38
2022-10-12T08:16:21.148Z,1.90
2022-10-12T08:18:49.704Z,2.03
2022-10-12T08:21:18.035Z,1.63
2022-10-12T08:23:45.802Z,2.38
2022-10-12T08:26:15.916Z,1.92
2022-10-12T08:28:43.728Z,3.60
2022-10-12T08:31:13.024Z,1.25
2022-10-12T08:33:40.788Z,2.05
2022-10-12T08:36:08.849Z,1.65
2022-10-12T08:38:43.815Z,1.70
2022-10-12T08:46:56.598Z,1.75
2022-10-12T08:52:17.114Z,1.50
2022-10-12T09:00:21.006Z,2.10
2022-10-12T09:05:40.445Z,1.33
2022-10-12T09:19:37.104Z,1.40
2022-10-12T09:25:03.515Z,1.67
2022-10-12T09:33:24.700Z,1.70
2022-10-12T09:46:50.009Z,1.88
2022-10-12T09:57:37.182Z,1.40
2022-10-12T10:02:53.787Z,1.73
2022-10-12T10:11:29.738Z,1.77
2022-10-12T10:19:27.238Z,1.02
2022-10-12T10:36:27.270Z,1.58
2022-10-12T10:41:49.915Z,1.05
2022-10-12T10:53:02.865Z,1.83
2022-10-12T11:17:58.178Z,1.15
2022-10-12T11:20:35.813Z,2.13
2022-10-12T11:29:13.789Z,1.40
2022-10-12T11:32:08.468Z,1.45
2022-10-12T11:37:21.666Z,1.30
2022-10-12T11:42:43.768Z,1.10
2022-10-12T11:48:03.854Z,1.80
2022-10-12T11:56:06.601Z,1.50
2022-10-12T12:01:24.073Z,1.30
2022-10-12T12:26:17.908Z,0.80
2022-10-12T13:30:33.213Z,0.93
2022-10-12T14:25:56.297Z,1.42
2022-10-12T14:51:17.635Z,1.45
2022-10-12T15:23:49.849Z,2.00
2022-10-12T15:56:53.262Z,1.50
2022-10-12T16:07:40.900Z,2.53
2022-10-12T16:18:40.232Z,2.10
2022-10-12T17:22:09.180Z,2.50
2022-10-12T18:15:12.790Z,3.65
2022-10-12T18:57:02.887Z,2.70
2022-10-12T19:02:13.134Z,3.35
2022-10-12T19:04:42.435Z,3.28
2022-10-12T19:13:03.971Z,3.45
2022-10-12T19:20:55.415Z,2.83
2022-10-12T19:23:23.175Z,3.50
2022-10-12T19:25:51.082Z,3.35
2022-10-12T19:31:35.012Z,3.30
2022-10-12T19:34:03.429Z,3.42
2022-10-12T19:36:31.066Z,3.53
2022-10-12T19:38:59.219Z,2.50
2022-10-12T19:41:27.404Z,3.05
2022-10-12T19:43:55.533Z,3.00
2022-10-12T19:46:26.185Z,3.40
2022-10-12T19:48:54.741Z,2.67
2022-10-12T19:51:25.356Z,2.97
2022-10-12T19:53:57.276Z,2.95
2022-10-12T19:56:25.096Z,3.53
2022-10-12T19:58:53.540Z,3.38
2022-10-12T20:01:22.096Z,2.92
2022-10-12T20:03:51.213Z,2.72
2022-10-12T20:06:19.554Z,2.65
2022-10-12T20:08:47.304Z,3.90
2022-10-12T20:11:18.940Z,3.22
2022-10-12T20:13:48.597Z,2.97
2022-10-12T20:16:16.807Z,2.53
2022-10-12T20:18:44.265Z,3.50
2022-10-12T20:21:13.236Z,3.13
2022-10-12T20:23:41.873Z,3.40
2022-10-12T20:26:11.092Z,3.40
2022-10-12T20:28:38.555Z,3.45
2022-10-12T20:31:06.896Z,4.65
2022-10-12T20:33:35.366Z,4.22
2022-10-12T20:36:03.140Z,3.20
2022-10-12T20:38:30.567Z,3.38
2022-10-12T20:41:08.602Z,3.53
2022-10-12T20:43:36.780Z,3.80
2022-10-12T20:46:05.066Z,2.92
2022-10-12T20:48:33.367Z,3.30
2022-10-12T20:51:00.894Z,3.40
2022-10-12T20:53:28.451Z,3.65
2022-10-12T20:55:55.875Z,4.20
2022-10-12T20:58:27.633Z,3.25
2022-10-12T21:01:08.835Z,3.83
2022-10-12T21:03:36.733Z,3.33
2022-10-12T21:06:05.475Z,3.33
2022-10-12T21:08:34.145Z,3.30
2022-10-12T21:11:01.704Z,4.60
2022-10-12T21:13:34.492Z,3.35
2022-10-12T21:16:02.367Z,3.45
2022-10-12T21:18:34.013Z,4.20
2022-10-12T21:21:06.158Z,3.83
2022-10-12T21:23:33.616Z,3.83
2022-10-12T21:26:09.006Z,3.35
2022-10-12T21:28:36.588Z,3.75
2022-10-12T21:31:04.291Z,4.03
2022-10-12T21:33:31.842Z,3.75
2022-10-12T21:36:19.228Z,3.70
2022-10-12T21:38:47.896Z,4.43
2022-10-12T21:41:16.055Z,4.43
2022-10-12T21:43:43.932Z,3.53
2022-10-12T21:46:13.320Z,3.72
2022-10-12T21:48:41.166Z,3.67
2022-10-12T21:51:09.801Z,3.72
2022-10-12T21:53:38.175Z,3.42
2022-10-12T21:56:09.660Z,3.55
2022-10-12T21:58:37.125Z,3.53
2022-10-12T22:01:15.988Z,4.25
2022-10-12T22:03:43.774Z,3.95
2022-10-12T22:06:15.477Z,4.13
2022-10-12T22:08:43.309Z,4.03
2022-10-12T22:11:11.590Z,4.40
2022-10-12T22:13:39.621Z,4.20
2022-10-12T22:16:08.894Z,4.38
2022-10-12T22:18:36.369Z,3.45
2022-10-12T22:21:05.087Z,3.85
2022-10-12T22:23:32.704Z,3.50
2022-10-12T22:26:03.931Z,3.80
2022-10-12T22:28:31.754Z,3.13
2022-10-12T22:30:59.460Z,3.95
2022-10-12T22:33:26.895Z,3.35
2022-10-12T22:36:00.861Z,3.55
2022-10-12T22:38:29.409Z,4.05
2022-10-12T22:41:01.493Z,3.17
2022-10-12T22:43:29.855Z,3.92
2022-10-12T22:45:57.788Z,4.65
2022-10-12T22:48:25.755Z,4.10
2022-10-12T22:50:53.900Z,3.83
2022-10-12T22:53:22.180Z,4.05
2022-10-12T22:55:49.757Z,4.47
2022-10-12T22:58:17.214Z,4.50
2022-10-12T23:00:44.772Z,4.40
2022-10-12T23:03:12.240Z,4.10
2022-10-12T23:05:39.690Z,4.30
2022-10-12T23:08:09.147Z,4.50
2022-10-12T23:10:36.579Z,4.32
2022-10-12T23:13:03.998Z,3.63
2022-10-12T23:15:31.562Z,4.50
2022-10-12T23:18:00.013Z,4.45
2022-10-12T23:20:27.385Z,4.13
2022-10-12T23:22:54.831Z,3.90
2022-10-12T23:25:24.594Z,3.20
2022-10-12T23:27:51.939Z,4.28
2022-10-12T23:30:19.350Z,4.55
2022-10-12T23:32:46.805Z,3.83
2022-10-12T23:35:14.544Z,5.15
2022-10-12T23:37:44.196Z,3.58
2022-10-12T23:40:12.311Z,4.30
2022-10-12T23:42:39.701Z,3.85
2022-10-12T23:45:07.361Z,3.88
2022-10-12T23:47:35.985Z,4.07
2022-10-12T23:50:03.445Z,4.30
2022-10-12T23:52:30.839Z,4.43
2022-10-12T23:54:58.296Z,4.20
2022-10-12T23:57:45.789Z,5.72
